Thursday, September 20, 2018, 12:31 PM EDT
Back to Local

KSNC, Chester, Chester Airport

Location: Chester, CT, United States Lat: 41.384
Local Time: 12:31 PM EDT (16:31 GMT) Lon: -72.506
Time Zone: US/Eastern Elev: 416 ft

Show me the last for .
Show Coded

Time T Td Feel RH Dir Speed Gust Alt SLP Vis Weather Sky Remarks
2018-09-20 12:15 70 55 - 60 20° 8 - 30.25 - 10 FEW026 BKN049 None
2018-09-20 11:55 70 55 - 60 Variable 7 14 30.25 - 10 BKN049 None
2018-09-20 11:35 70 55 - 60 50° 7 - 30.25 - 10 BKN049 None
2018-09-20 11:15 70 57 - 64 Variable 5 - 30.26 - 10 FEW034 BKN049 None
2018-09-20 10:55 68 55 - 64 50° 8 - 30.25 - 10 FEW049 None
2018-09-20 10:35 66 55 - 68 40° 8 - 30.25 - 10 FEW049 None
2018-09-20 10:15 66 55 - 68 20° 8 - 30.24 - 8 CLR None
2018-09-20 09:55 66 55 - 68 60° 9 - 30.22 - 10 CLR None
2018-09-20 09:35 66 55 - 68 40° 8 - 30.22 - 10 CLR None
2018-09-20 09:15 66 55 - 68 40° 7 - 30.23 - 10 SCT049 None
2018-09-20 08:55 64 55 - 72 20° 9 - 30.21 - 10 BKN049 None
2018-09-20 08:35 63 55 - 77 40° 10 - 30.21 - 10 BKN049 None
2018-09-20 08:15 64 55 - 72 40° 10 - 30.20 - 10 BKN050 None
2018-09-20 07:55 63 55 - 77 30° 10 - 30.19 - 10 BKN050 None
2018-09-20 07:35 63 55 - 77 30° 7 - 30.18 - 10 OVC050 None
2018-09-20 07:15 61 55 - 82 40° 6 - 30.18 - 10 OVC050 None
2018-09-20 06:55 59 55 - 87 30° 6 - 30.17 - 10 OVC050 None
2018-09-20 06:35 59 55 - 87 30° 6 - 30.16 - 10 BKN050 None
2018-09-20 06:15 57 55 - 93 20° 5 - 30.16 - 10 FEW036 SCT050 None
2018-09-20 05:55 57 55 - 93 20° 3 - 30.16 - 10 BKN036 None
2018-09-20 05:35 57 55 - 93 360° 5 - 30.14 - 10 FEW035 SCT050 None
2018-09-20 05:15 57 55 - 93 350° 6 - 30.14 - 10 FEW050 None
2018-09-20 04:55 57 55 - 93 30° 6 - 30.12 - 10 SCT055 None
2018-09-20 04:35 59 55 - 87 40° 5 - 30.12 - 10 BKN055 None
2018-09-20 04:15 59 55 - 87 30° 6 - 30.12 - 10 OVC055 None
2018-09-20 03:55 59 55 - 87 20° 6 - 30.12 - 10 OVC055 None
2018-09-20 03:35 59 55 - 87 20° 5 - 30.12 - 10 BKN055 None
2018-09-20 03:15 57 55 - 93 10° 6 - 30.12 - 10 CLR None
2018-09-20 02:55 57 55 - 93 360° 5 - 30.12 - 10 CLR None
2018-09-20 02:35 57 55 - 93 30° 5 - 30.11 - 10 CLR None
2018-09-20 02:15 59 55 - 87 30° 5 - 30.11 - 10 FEW035 None
2018-09-20 01:55 59 55 - 87 - Calm - 30.11 - 10 CLR None
2018-09-20 01:35 59 55 - 87 50° 6 - 30.11 - 10 CLR None
2018-09-20 01:15 59 55 - 87 50° 6 - 30.11 - 10 CLR None
2018-09-20 00:55 59 55 - 87 30° 5 - 30.11 - 10 CLR None
2018-09-20 00:35 59 55 - 87 40° 6 - 30.10 - 10 CLR None
2018-09-20 00:15 59 57 - 93 40° 7 - 30.11 - 10 FEW036 SCT050 None
2018-09-19 23:55 61 57 - 87 50° 5 - 30.10 - 10 OVC035 None
2018-09-19 23:35 61 57 - 87 30° 6 - 30.10 - 10 FEW017 BKN031 BKN038 None
2018-09-19 23:15 61 57 - 87 50° 6 - 30.09 - 10 BKN031 BKN037 OVC050 None
2018-09-19 22:55 63 57 - 82 40° 5 - 30.09 - 10 BKN031 OVC050 None
2018-09-19 22:35 63 57 - 82 50° 6 - 30.09 - 10 FEW013 OVC030 None
2018-09-19 22:15 63 57 - 82 40° 8 - 30.08 - 10 FEW013 OVC029 None
2018-09-19 21:55 63 57 - 82 60° 5 13 30.07 - 10 FEW013 FEW018 BKN029 None
2018-09-19 18:15 68 63 - 82 70° 7 - 29.99 - 10 SCT017 None
2018-09-19 17:55 70 63 - 77 70° 7 - 29.98 - 10 -RA BKN020 None
2018-09-19 17:35 72 63 76 73 60° 8 - 29.97 - 10 BKN020 None
2018-09-19 17:15 72 64 76 78 50° 5 - 29.96 - 10 SCT020 None
2018-09-19 16:55 73 64 77 73 70° 9 - 29.94 - 10 FEW017 None
2018-09-19 16:35 73 64 77 73 60° 7 - 29.94 - 10 SCT023 SCT029 None
2018-09-19 16:15 73 64 77 73 70° 9 - 29.94 - 10 SCT021 BKN027 BKN041 None
2018-09-19 15:55 75 64 78 69 Variable 7 - 29.93 - 10 SCT022 SCT028 None
2018-09-19 15:35 73 64 77 73 50° 6 - 29.93 - 10 FEW019 FEW029 SCT044 None
2018-09-19 15:15 75 64 78 69 70° 6 - 29.93 - 10 FEW021 FEW027 BKN033 None
2018-09-19 14:55 77 64 80 65 70° 8 - 29.94 - 10 FEW018 SCT032 BKN042 None
2018-09-19 14:35 75 64 78 69 70° 8 - 29.93 - 10 FEW019 SCT025 SCT039 None
2018-09-19 14:15 75 64 78 69 80° 6 - 29.93 - 10 SCT018 BKN024 BKN039 None
2018-09-19 13:55 75 66 78 73 60° 8 - 29.93 - 10 SCT018 BKN023 BKN120 None
2018-09-19 13:35 73 66 77 78 70° 7 - 29.93 - 10 BKN016 BKN021 BKN026 None
2018-09-19 13:15 73 66 77 78 60° 9 - 29.93 - 10 BKN016 BKN028 BKN039 None
2018-09-19 12:55 73 66 77 78 Variable 7 - 29.94 - 10 SCT015 SCT038 SCT046 None
2018-09-19 12:35 73 66 77 78 70° 8 - 29.93 - 10 SCT014 BKN019 BKN025 None

Support USWX by starting your Amazon purchase here.